Time;durP1;ratioP1;P1;durP2;ratioP2;P2;SDS_P1;SDS_P2;PMS_P1;PMS_P2;Temp;Humidity;BMP_temperature;BMP_pressure;BME280_temperature;BME280_humidity;BME280_pressure;Samples;Min_cycle;Max_cycle;Signal;HPM_P1;HPM_P2
2024/03/21 00:01:33;;;;;;;0.80;0.80;;;;;;;4.18;100.00;98770.50;6134702;23;20001;-93
2024/03/21 00:03:59;;;;;;;0.80;0.80;;;;;;;4.03;100.00;98775.84;6159071;23;20100;-92
2024/03/21 00:06:25;;;;;;;0.82;0.82;;;;;;;4.07;100.00;98775.16;6156756;23;20013;-93
2024/03/21 00:08:51;;;;;;;0.85;0.85;;;;;;;4.22;100.00;98776.03;6156930;23;20001;-92
2024/03/21 00:11:16;;;;;;;0.80;0.80;;;;;;;4.09;100.00;98773.53;6156366;23;20338;-93
2024/03/21 00:13:42;;;;;;;0.80;0.80;;;;;;;4.00;100.00;98778.31;6156874;23;20017;-93
2024/03/21 00:16:07;;;;;;;0.80;0.80;;;;;;;4.02;100.00;98774.91;6130158;23;20013;-93
2024/03/21 00:18:33;;;;;;;0.80;0.80;;;;;;;3.99;100.00;98782.69;6155613;23;20013;-93
2024/03/21 00:20:58;;;;;;;0.80;0.80;;;;;;;3.93;100.00;98777.06;6155478;23;20334;-90
2024/03/21 00:23:25;;;;;;;0.80;0.80;;;;;;;3.94;100.00;98777.97;6130671;23;20065;-92
2024/03/21 00:25:50;;;;;;;0.73;0.73;;;;;;;4.01;100.00;98769.56;6155332;23;20001;-91
2024/03/21 00:28:16;;;;;;;0.90;0.90;;;;;;;3.97;100.00;98770.22;6154542;23;20250;-91
2024/03/21 00:30:43;;;;;;;0.88;0.88;;;;;;;3.98;100.00;98765.03;6155570;23;20013;-92
2024/03/21 00:33:10;;;;;;;0.80;0.80;;;;;;;4.08;100.00;98764.72;6129780;23;20014;-90
2024/03/21 00:35:36;;;;;;;0.80;0.80;;;;;;;4.27;100.00;98760.44;6106085;23;20033;-92
2024/03/21 00:38:01;;;;;;;0.90;0.90;;;;;;;4.17;100.00;98756.41;6155334;23;20246;-93
2024/03/21 00:40:27;;;;;;;0.90;0.90;;;;;;;4.32;100.00;98757.22;6154580;23;20015;-91
2024/03/21 00:42:54;;;;;;;0.90;0.90;;;;;;;4.18;100.00;98755.56;6154047;23;20013;-91
2024/03/21 00:45:20;;;;;;;1.00;1.00;;;;;;;4.20;100.00;98747.72;6130211;23;20018;-92
2024/03/21 00:47:45;;;;;;;0.90;0.90;;;;;;;4.16;100.00;98743.09;6129929;23;20009;-92
2024/03/21 00:50:11;;;;;;;0.90;0.90;;;;;;;4.04;100.00;98752.16;6130403;23;20013;-93
2024/03/21 00:52:36;;;;;;;0.80;0.80;;;;;;;3.99;100.00;98740.47;6154981;23;20040;-90
2024/03/21 00:55:02;;;;;;;0.80;0.80;;;;;;;4.06;100.00;98747.88;6155480;23;20013;-91
2024/03/21 00:57:27;;;;;;;0.90;0.90;;;;;;;4.25;100.00;98746.22;6132532;23;20366;-91
2024/03/21 00:59:53;;;;;;;0.98;0.98;;;;;;;4.28;100.00;98742.03;6155983;23;20013;-91
2024/03/21 01:02:19;;;;;;;0.90;0.90;;;;;;;4.19;100.00;98749.44;6155248;23;20001;-93
2024/03/21 01:04:50;;;;;;;0.90;0.90;;;;;;;4.07;100.00;98748.78;6156102;23;20250;-92
2024/03/21 01:07:17;;;;;;;0.90;0.90;;;;;;;4.22;100.00;98754.91;6155167;23;20013;-91
2024/03/21 01:09:46;;;;;;;0.90;0.90;;;;;;;4.18;100.00;98750.28;6156204;23;20017;-91
2024/03/21 01:12:12;;;;;;;0.90;0.90;;;;;;;4.08;100.00;98750.63;6154420;23;20022;-91
2024/03/21 01:14:38;;;;;;;0.88;0.88;;;;;;;4.08;100.00;98742.69;6132729;23;20041;-92
2024/03/21 01:17:04;;;;;;;0.80;0.80;;;;;;;4.14;100.00;98748.31;6158043;23;20489;-93
2024/03/21 01:19:29;;;;;;;0.80;0.80;;;;;;;4.07;100.00;98746.13;6154497;23;20087;-91
2024/03/21 01:21:55;;;;;;;0.90;0.90;;;;;;;4.16;100.00;98749.28;6154213;23;20139;-91
2024/03/21 01:24:20;;;;;;;0.90;0.90;;;;;;;3.94;100.00;98743.66;6153816;23;20049;-91
2024/03/21 01:26:46;;;;;;;0.80;0.80;;;;;;;3.94;100.00;98743.66;6179186;23;20038;-92
2024/03/21 01:29:12;;;;;;;0.90;0.90;;;;;;;3.85;100.00;98742.34;6154483;23;20019;-91
2024/03/21 01:31:39;;;;;;;0.98;0.98;;;;;;;3.90;100.00;98734.66;6155232;23;20473;-91
2024/03/21 01:34:05;;;;;;;0.82;0.82;;;;;;;3.72;100.00;98737.19;6155191;23;20013;-91
2024/03/21 01:36:34;;;;;;;0.85;0.85;;;;;;;3.72;100.00;98736.28;6130331;23;20017;-92
2024/03/21 01:39:01;;;;;;;0.80;0.80;;;;;;;3.79;100.00;98743.72;6156357;23;20018;-92
2024/03/21 01:41:28;;;;;;;0.90;0.90;;;;;;;3.77;100.00;98735.72;6132908;23;20020;-91
2024/03/21 01:43:53;;;;;;;0.90;0.90;;;;;;;3.76;100.00;98739.19;6130863;23;20325;-91
2024/03/21 01:46:20;;;;;;;0.82;0.82;;;;;;;3.66;100.00;98733.31;6131104;23;20017;-91
2024/03/21 01:48:50;;;;;;;0.80;0.80;;;;;;;3.59;100.00;98732.03;6131464;23;20017;-92
2024/03/21 01:51:23;;;;;;;0.80;0.80;;;;;;;3.60;100.00;98728.59;6157257;23;20013;-91
2024/03/21 01:53:51;;;;;;;0.90;0.90;;;;;;;3.57;100.00;98734.59;6130829;23;20018;-90
2024/03/21 01:56:17;;;;;;;0.85;0.85;;;;;;;3.54;100.00;98722.97;6128764;23;20020;-91
2024/03/21 01:58:43;;;;;;;0.90;0.90;;;;;;;3.65;100.00;98724.50;6133063;23;20024;-93
2024/03/21 02:01:28;;;;;;;0.95;0.95;;;;;;;3.72;100.00;98728.38;6133076;23;20044;-92
2024/03/21 02:03:57;;;;;;;0.98;0.98;;;;;;;3.53;100.00;98732.59;6152480;23;20024;-91
2024/03/21 02:06:29;;;;;;;0.90;0.90;;;;;;;3.54;100.00;98733.50;6132150;23;20024;-91
2024/03/21 02:08:54;;;;;;;0.80;0.80;;;;;;;3.62;100.00;98739.22;6170932;23;19993;-90
2024/03/21 02:11:22;;;;;;;0.93;0.93;;;;;;;3.51;100.00;98733.34;6149730;23;20052;-90
2024/03/21 02:13:49;;;;;;;0.98;0.98;;;;;;;3.45;100.00;98738.25;6147729;23;20017;-90
2024/03/21 02:16:16;;;;;;;;;;;;;;;3.57;100.00;98729.31;6163724;23;20438;-90
2024/03/21 02:18:41;;;;;;;0.93;0.93;;;;;;;3.49;100.00;98735.88;6127027;23;19923;-91
2024/03/21 02:22:35;;;;;;;0.93;0.93;;;;;;;3.54;100.00;98738.78;6128281;23;20021;-91
2024/03/21 02:23:53;;;;;;;0.90;0.90;;;;;;;3.44;100.00;98734.72;6152294;23;20076;-91
2024/03/21 02:26:19;;;;;;;0.90;0.90;;;;;;;3.54;100.00;98744.06;6149306;23;20017;-92
2024/03/21 02:28:46;;;;;;;0.90;0.90;;;;;;;3.50;100.00;98737.72;6126113;23;20369;-92
2024/03/21 02:31:12;;;;;;;;;;;;;;;3.48;100.00;98743.72;6128630;23;20021;-91
2024/03/21 02:33:37;;;;;;;0.88;0.88;;;;;;;3.51;100.00;98749.19;6154722;23;19920;-92
2024/03/21 02:36:03;;;;;;;0.90;0.90;;;;;;;3.58;100.00;98746.06;6153290;23;20091;-94
2024/03/21 02:38:29;;;;;;;0.90;0.90;;;;;;;3.64;100.00;98751.69;6128926;23;20047;-91
2024/03/21 02:40:54;;;;;;;0.80;0.80;;;;;;;3.75;100.00;98750.56;6152750;23;20009;-93
2024/03/21 02:43:19;;;;;;;0.80;0.80;;;;;;;3.95;100.00;98748.13;6128805;23;20084;-92
2024/03/21 02:45:45;;;;;;;0.90;0.90;;;;;;;4.10;100.00;98748.94;6127691;23;20005;-90
2024/03/21 02:48:11;;;;;;;0.90;0.90;;;;;;;4.26;100.00;98745.41;6154001;23;20016;-91
2024/03/21 02:50:36;;;;;;;0.90;0.90;;;;;;;4.31;100.00;98742.22;6127453;23;20008;-93
2024/03/21 02:53:04;;;;;;;0.88;0.88;;;;;;;4.34;100.00;98745.00;6127454;23;20032;-93
2024/03/21 02:55:29;;;;;;;0.90;0.90;;;;;;;4.44;100.00;98738.47;6152563;23;20017;-92
2024/03/21 02:57:55;;;;;;;0.90;0.90;;;;;;;4.48;100.00;98742.19;6152349;23;20005;-92
2024/03/21 03:00:21;;;;;;;0.80;0.80;;;;;;;4.42;100.00;98747.16;6130517;23;20033;-90
2024/03/21 03:02:48;;;;;;;0.90;0.90;;;;;;;4.48;100.00;98731.63;6129755;23;20001;-90
2024/03/21 03:05:15;;;;;;;0.90;0.90;;;;;;;4.57;100.00;98738.28;6129156;23;20016;-90
2024/03/21 03:07:40;;;;;;;0.80;0.80;;;;;;;4.64;100.00;98742.16;6129014;23;20449;-90
2024/03/21 03:10:06;;;;;;;0.70;0.70;;;;;;;4.69;100.00;98738.00;6153986;23;20053;-90
2024/03/21 03:12:31;;;;;;;0.80;0.80;;;;;;;4.72;100.00;98732.91;6154125;23;20017;-92
2024/03/21 03:14:57;;;;;;;0.88;0.88;;;;;;;4.78;100.00;98732.31;6129812;23;20017;-92
2024/03/21 03:17:22;;;;;;;0.70;0.70;;;;;;;4.76;100.00;98745.44;6153546;23;20028;-92
2024/03/21 03:19:48;;;;;;;0.80;0.80;;;;;;;4.77;100.00;98741.97;6155413;23;20037;-92
2024/03/21 03:22:13;;;;;;;0.80;0.80;;;;;;;4.91;100.00;98744.44;6127698;23;20140;-91
2024/03/21 03:24:39;;;;;;;0.80;0.80;;;;;;;4.93;100.00;98750.69;6153254;23;20025;-92
2024/03/21 03:27:04;;;;;;;0.80;0.80;;;;;;;4.95;99.50;98752.59;6169521;23;20013;-90
2024/03/21 03:29:31;;;;;;;0.70;0.70;;;;;;;5.01;100.00;98768.75;6159245;23;20013;-92
2024/03/21 03:32:01;;;;;;;0.80;0.80;;;;;;;5.03;99.43;98760.91;6125902;23;20017;-93
2024/03/21 03:37:16;;;;;;;0.80;0.80;;;;;;;5.09;99.60;98766.53;6150419;23;20021;-92
2024/03/21 03:39:43;;;;;;;0.77;0.77;;;;;;;5.10;98.97;98768.31;6151923;23;20513;-92
2024/03/21 03:42:09;;;;;;;0.70;0.70;;;;;;;5.14;99.78;98772.94;6155062;23;20019;-93
2024/03/21 03:44:35;;;;;;;0.80;0.80;;;;;;;5.12;100.00;98779.88;6128934;23;20014;-93
2024/03/21 03:47:01;;;;;;;0.73;0.73;;;;;;;5.21;99.92;98783.00;6128108;23;20091;-92
2024/03/21 03:49:27;;;;;;;0.80;0.80;;;;;;;5.11;99.45;98786.91;6153885;23;20017;-94
2024/03/21 03:51:54;;;;;;;0.77;0.77;;;;;;;5.07;99.79;98784.94;6154201;23;20734;-93
2024/03/21 03:54:20;;;;;;;0.80;0.80;;;;;;;5.07;99.91;98786.66;6153112;23;20466;-92
2024/03/21 03:56:45;;;;;;;0.80;0.80;;;;;;;5.05;100.00;98794.53;6154147;23;20096;-92
2024/03/21 03:59:10;;;;;;;0.80;0.80;;;;;;;5.10;100.00;98790.38;6127905;23;20045;-92
2024/03/21 04:01:37;;;;;;;0.80;0.80;;;;;;;5.02;100.00;98785.53;6128079;23;20029;-92
2024/03/21 04:04:03;;;;;;;0.70;0.70;;;;;;;5.01;99.98;98800.50;6128533;23;20017;-92
2024/03/21 04:06:30;;;;;;;0.80;0.80;;;;;;;4.96;99.89;98798.44;6128808;23;20020;-92
2024/03/21 04:08:55;;;;;;;0.70;0.70;;;;;;;5.01;100.00;98796.94;6154089;23;20018;-92
2024/03/21 04:11:21;;;;;;;0.70;0.70;;;;;;;5.14;99.83;98802.94;6152965;23;20044;-92
2024/03/21 04:13:46;;;;;;;0.80;0.80;;;;;;;5.02;99.84;98798.75;6127733;23;20009;-92
2024/03/21 04:16:21;;;;;;;0.80;0.80;;;;;;;4.86;99.86;98803.25;6153140;23;20013;-91
2024/03/21 04:18:47;;;;;;;0.70;0.70;;;;;;;4.81;100.00;98803.84;6148879;23;20079;-91
2024/03/21 04:21:12;;;;;;;0.90;0.90;;;;;;;4.76;100.00;98808.88;6153989;23;20018;-91
2024/03/21 04:23:38;;;;;;;0.75;0.75;;;;;;;4.76;100.00;98807.97;6153498;23;20021;-91
2024/03/21 04:26:03;;;;;;;0.80;0.80;;;;;;;4.92;100.00;98799.09;6129618;23;20013;-92
2024/03/21 04:28:29;;;;;;;0.82;0.82;;;;;;;4.89;100.00;98800.78;6152040;23;20018;-90
2024/03/21 04:30:54;;;;;;;0.80;0.80;;;;;;;4.87;100.00;98799.78;6154854;23;20072;-91
2024/03/21 04:33:20;;;;;;;0.90;0.90;;;;;;;4.80;100.00;98805.56;6152516;23;20021;-91
2024/03/21 04:35:45;;;;;;;0.80;0.80;;;;;;;4.60;100.00;98800.97;6124869;23;20013;-91
2024/03/21 04:38:11;;;;;;;0.80;0.80;;;;;;;4.55;100.00;98794.50;6149101;23;20017;-91
2024/03/21 04:40:37;;;;;;;0.80;0.80;;;;;;;4.59;100.00;98797.41;6152473;23;20096;-90
2024/03/21 04:43:03;;;;;;;0.80;0.80;;;;;;;4.47;100.00;98801.13;6128487;23;20084;-91
2024/03/21 04:45:28;;;;;;;0.90;0.90;;;;;;;4.50;100.00;98806.56;6128550;23;20026;-91
2024/03/21 04:47:54;;;;;;;0.90;0.90;;;;;;;4.64;100.00;98805.56;6153676;23;20009;-91
2024/03/21 04:50:20;;;;;;;0.90;0.90;;;;;;;4.86;100.00;98803.25;6128145;23;20055;-93
2024/03/21 04:52:45;;;;;;;0.82;0.82;;;;;;;4.80;100.00;98795.00;6129832;23;20150;-93
2024/03/21 04:55:12;;;;;;;0.90;0.90;;;;;;;4.97;100.00;98805.53;6131932;23;20049;-92
2024/03/21 04:57:38;;;;;;;0.90;0.90;;;;;;;4.93;100.00;98806.19;6132198;23;20094;-94
2024/03/21 05:00:05;;;;;;;0.82;0.82;;;;;;;4.77;100.00;98805.41;6153697;23;20006;-92
2024/03/21 05:02:32;;;;;;;0.90;0.90;;;;;;;4.70;100.00;98811.22;6150283;23;20012;-92
2024/03/21 05:04:58;;;;;;;0.80;0.80;;;;;;;4.78;100.00;98817.78;6125233;23;20014;-92
2024/03/21 05:07:24;;;;;;;0.80;0.80;;;;;;;4.68;100.00;98819.88;6150359;23;20723;-91
2024/03/21 05:09:51;;;;;;;0.80;0.80;;;;;;;4.73;100.00;98832.50;6127510;23;20013;-92
2024/03/21 05:12:17;;;;;;;0.90;0.90;;;;;;;4.65;100.00;98833.84;6154527;23;20096;-91
2024/03/21 05:14:43;;;;;;;0.90;0.90;;;;;;;4.54;100.00;98824.41;6153275;23;20053;-91
2024/03/21 05:17:10;;;;;;;0.80;0.80;;;;;;;4.55;100.00;98820.94;6154066;23;20013;-93
2024/03/21 05:19:36;;;;;;;0.80;0.80;;;;;;;4.49;100.00;98824.16;6128241;23;20735;-93
2024/03/21 05:22:02;;;;;;;0.90;0.90;;;;;;;4.41;100.00;98829.84;6128349;23;20017;-93
2024/03/21 05:24:27;;;;;;;0.80;0.80;;;;;;;4.32;100.00;98833.81;6128929;23;20020;-92
2024/03/21 05:26:53;;;;;;;0.80;0.80;;;;;;;4.54;100.00;98829.69;6128515;23;20350;-91
2024/03/21 05:29:19;;;;;;;0.70;0.70;;;;;;;4.52;100.00;98828.72;6154613;23;19998;-90
2024/03/21 05:31:44;;;;;;;0.80;0.80;;;;;;;4.64;100.00;98827.63;6162648;23;20044;-92
2024/03/21 05:34:10;;;;;;;0.90;0.90;;;;;;;4.63;100.00;98815.22;6153199;23;20021;-93
2024/03/21 05:36:35;;;;;;;0.80;0.80;;;;;;;4.62;100.00;98818.72;6152995;23;20346;-92
2024/03/21 05:39:02;;;;;;;0.82;0.82;;;;;;;4.67;100.00;98811.03;6154382;23;20422;-92
2024/03/21 05:41:28;;;;;;;0.80;0.80;;;;;;;4.72;100.00;98817.47;6127662;23;20017;-92
2024/03/21 05:43:53;;;;;;;0.80;0.80;;;;;;;4.86;100.00;98820.84;6153612;23;20037;-92
2024/03/21 05:46:26;;;;;;;0.90;0.90;;;;;;;4.90;100.00;98812.25;6127215;23;20006;-93
2024/03/21 05:48:54;;;;;;;0.82;0.82;;;;;;;4.96;100.00;98817.84;6151532;23;20017;-94
2024/03/21 05:51:19;;;;;;;0.80;0.80;;;;;;;5.00;100.00;98825.13;6149310;23;20009;-93
2024/03/21 05:53:45;;;;;;;0.80;0.80;;;;;;;5.04;100.00;98816.53;6136149;23;20389;-92
2024/03/21 05:56:10;;;;;;;0.80;0.80;;;;;;;5.06;100.00;98820.16;6157201;23;20076;-91
2024/03/21 05:58:37;;;;;;;0.70;0.70;;;;;;;5.09;100.00;98822.06;6126082;23;20017;-93
2024/03/21 06:03:33;;;;;;;0.85;0.85;;;;;;;5.29;99.84;98817.78;6160960;23;20176;-92
2024/03/21 06:06:00;;;;;;;0.80;0.80;;;;;;;5.40;98.96;98824.53;6156890;23;20463;-92
2024/03/21 06:08:27;;;;;;;0.90;0.90;;;;;;;5.50;98.62;98823.25;6156815;23;20010;-91
2024/03/21 06:10:53;;;;;;;0.83;0.83;;;;;;;5.55;97.96;98833.22;6156224;23;20009;-93
2024/03/21 06:13:20;;;;;;;0.80;0.80;;;;;;;5.70;98.44;98824.22;6152995;23;20021;-93
2024/03/21 06:15:45;;;;;;;0.80;0.80;;;;;;;5.91;97.77;98823.59;6152355;23;20474;-91
2024/03/21 06:18:11;;;;;;;0.80;0.80;;;;;;;6.04;97.03;98826.84;6128263;23;20118;-92
2024/03/21 06:20:36;;;;;;;0.82;0.82;;;;;;;6.25;96.80;98833.16;6151435;23;20036;-91
2024/03/21 06:23:02;;;;;;;0.80;0.80;;;;;;;6.53;95.30;98831.81;6151386;23;20631;-92
2024/03/21 06:25:27;;;;;;;0.80;0.80;;;;;;;6.78;94.29;98842.69;6152384;23;20017;-92
2024/03/21 06:27:53;;;;;;;0.70;0.70;;;;;;;6.96;93.91;98837.34;6127791;23;20114;-92
2024/03/21 06:30:19;;;;;;;0.70;0.70;;;;;;;7.19;93.60;98848.97;6154257;23;20237;-92
2024/03/21 06:32:45;;;;;;;0.70;0.70;;;;;;;7.32;91.81;98858.38;6153237;23;20036;-91
2024/03/21 06:35:13;;;;;;;0.70;0.70;;;;;;;7.35;90.80;98862.06;6132925;23;20012;-92
2024/03/21 06:37:38;;;;;;;0.70;0.70;;;;;;;7.35;90.69;98858.50;6133281;23;20013;-91
2024/03/21 06:40:05;;;;;;;0.68;0.68;;;;;;;7.34;90.24;98862.91;6156876;23;20017;-91
2024/03/21 06:42:32;;;;;;;0.70;0.70;;;;;;;7.42;90.80;98865.88;6155450;23;20013;-93
2024/03/21 06:45:04;;;;;;;0.70;0.70;;;;;;;7.59;91.20;98866.63;6105555;23;20013;-92
2024/03/21 06:47:30;;;;;;;0.60;0.60;;;;;;;7.65;89.77;98870.44;6153003;23;20438;-90
2024/03/21 06:49:58;;;;;;;0.70;0.70;;;;;;;7.78;89.73;98871.88;6128970;23;20020;-90
2024/03/21 06:52:24;;;;;;;0.60;0.60;;;;;;;7.88;88.42;98881.13;6131342;23;20652;-91
2024/03/21 06:54:50;;;;;;;0.60;0.60;;;;;;;8.00;87.31;98886.03;6154537;23;20024;-89
2024/03/21 06:57:16;;;;;;;0.60;0.60;;;;;;;7.78;87.07;98894.88;6157048;23;20096;-89
2024/03/21 06:59:41;;;;;;;0.60;0.60;;;;;;;7.89;86.40;98894.47;6131578;23;20018;-91
2024/03/21 07:02:08;;;;;;;0.60;0.60;;;;;;;8.25;86.43;98898.63;6155647;23;20008;-89
2024/03/21 07:04:33;;;;;;;0.70;0.70;;;;;;;8.45;84.79;98898.59;6128005;23;20053;-90
2024/03/21 07:06:59;;;;;;;0.60;0.60;;;;;;;8.68;84.60;98903.94;6154521;23;20009;-91
2024/03/21 07:09:26;;;;;;;0.70;0.70;;;;;;;8.75;83.61;98898.00;6142759;23;20021;-90
2024/03/21 07:11:53;;;;;;;0.60;0.60;;;;;;;8.90;82.63;98905.66;6131424;23;20036;-90
2024/03/21 07:14:19;;;;;;;0.60;0.60;;;;;;;9.09;81.58;98897.53;6156545;23;20013;-91
2024/03/21 07:16:44;;;;;;;0.60;0.60;;;;;;;8.71;82.46;98906.69;6156617;23;20088;-92
2024/03/21 07:19:10;;;;;;;0.60;0.60;;;;;;;9.08;81.00;98900.13;6131596;23;20024;-93
2024/03/21 07:21:36;;;;;;;0.60;0.60;;;;;;;8.79;81.02;98904.34;6155198;23;20013;-92
2024/03/21 07:24:01;;;;;;;0.60;0.60;;;;;;;9.21;80.34;98905.06;6155091;23;20448;-93
2024/03/21 07:26:29;;;;;;;0.57;0.57;;;;;;;9.69;78.81;98905.03;6154218;23;20555;-92
2024/03/21 07:28:55;;;;;;;0.60;0.60;;;;;;;9.59;79.68;98892.25;6156053;23;20037;-91
2024/03/21 07:31:21;;;;;;;0.60;0.60;;;;;;;9.80;79.87;98900.06;6131818;23;20214;-91
2024/03/21 07:33:51;;;;;;;0.60;0.60;;;;;;;9.89;79.18;98908.41;6158756;23;20013;-90
2024/03/21 07:36:18;;;;;;;0.50;0.50;;;;;;;10.05;78.40;98916.06;6137983;23;20022;-90
2024/03/21 07:38:44;;;;;;;;;;;;;;;10.28;78.02;98914.19;6173312;23;20017;-91
2024/03/21 07:41:09;;;;;;;0.60;0.60;;;;;;;10.62;76.09;98908.19;6157526;23;19930;-91
2024/03/21 07:43:35;;;;;;;0.60;0.60;;;;;;;11.04;75.01;98899.69;6154209;23;20009;-90
2024/03/21 07:46:00;;;;;;;0.50;0.50;;;;;;;11.29;74.37;98912.91;6153704;23;20019;-90
2024/03/21 07:48:26;;;;;;;0.57;0.57;;;;;;;11.50;73.63;98901.06;6130229;23;20044;-91
2024/03/21 07:50:51;;;;;;;0.50;0.50;;;;;;;12.02;72.01;98907.81;6153628;23;20021;-91
2024/03/21 07:53:17;;;;;;;0.50;0.50;;;;;;;12.26;70.79;98899.50;6126776;23;20037;-91
2024/03/21 07:55:43;;;;;;;0.60;0.60;;;;;;;12.65;69.40;98902.28;6127928;23;20013;-93
2024/03/21 07:58:09;;;;;;;0.50;0.50;;;;;;;12.84;68.75;98906.28;6128599;23;20333;-88
2024/03/21 08:00:34;;;;;;;0.50;0.50;;;;;;;13.09;67.64;98897.94;6154457;23;20013;-89
2024/03/21 08:03:00;;;;;;;0.50;0.50;;;;;;;13.01;67.71;98901.31;6155213;23;20299;-90
2024/03/21 08:05:26;;;;;;;0.40;0.40;;;;;;;12.80;68.59;98901.72;6152390;23;20378;-89
2024/03/21 08:07:51;;;;;;;0.40;0.40;;;;;;;13.06;68.08;98902.31;6151717;23;20048;-89
2024/03/21 08:10:17;;;;;;;0.40;0.40;;;;;;;13.00;68.47;98897.72;6151903;23;20021;-88
2024/03/21 08:12:43;;;;;;;0.40;0.40;;;;;;;13.10;68.20;98907.75;6152505;23;20358;-89
2024/03/21 08:15:09;;;;;;;0.50;0.50;;;;;;;13.31;67.25;98909.13;6154198;23;20006;-90
2024/03/21 08:17:34;;;;;;;0.40;0.40;;;;;;;13.53;66.33;98911.38;6151830;23;20093;-89
2024/03/21 08:20:01;;;;;;;0.40;0.40;;;;;;;13.72;66.30;98909.06;6126916;23;20088;-89
2024/03/21 08:22:27;;;;;;;0.40;0.40;;;;;;;13.79;66.14;98908.28;6126621;23;20390;-89
2024/03/21 08:24:52;;;;;;;0.40;0.40;;;;;;;13.90;65.43;98914.78;6151651;23;20005;-89
2024/03/21 08:27:19;;;;;;;0.40;0.40;;;;;;;13.77;66.30;98913.66;6152339;23;20017;-87
2024/03/21 08:29:50;;;;;;;0.45;0.45;;;;;;;13.83;66.31;98915.53;6150574;23;20010;-90
2024/03/21 08:32:18;;;;;;;0.40;0.40;;;;;;;14.09;66.00;98924.97;6154474;23;20469;-89
2024/03/21 08:34:45;;;;;;;0.32;0.32;;;;;;;14.31;64.67;98925.34;6162879;23;20009;-91
2024/03/21 08:37:10;;;;;;;0.30;0.30;;;;;;;14.35;64.57;98929.91;6162303;23;20013;-90
2024/03/21 08:39:36;;;;;;;0.30;0.30;;;;;;;13.99;66.18;98930.13;6160571;23;20028;-90
2024/03/21 08:42:01;;;;;;;0.30;0.30;;;;;;;13.96;66.37;98943.50;6129114;23;20044;-90
2024/03/21 08:44:27;;;;;;;0.40;0.40;;;;;;;14.09;66.37;98942.88;6124645;23;20052;-89
2024/03/21 08:46:54;;;;;;;0.38;0.38;;;;;;;14.00;67.05;98950.75;6127119;23;20119;-89
2024/03/21 08:49:20;;;;;;;0.30;0.30;;;;;;;13.68;68.21;98959.03;6151366;23;20505;-91
2024/03/21 08:51:45;;;;;;;0.40;0.40;;;;;;;14.03;68.14;98962.41;6152926;23;20013;-90
2024/03/21 08:54:11;;;;;;;0.40;0.40;;;;;;;14.05;68.00;98958.00;6153345;23;20060;-90
2024/03/21 08:56:36;;;;;;;0.30;0.30;;;;;;;14.23;67.09;98968.19;6154725;23;20005;-89
2024/03/21 08:59:03;;;;;;;0.40;0.40;;;;;;;14.12;67.23;98959.00;6129370;23;20009;-91
2024/03/21 09:01:28;;;;;;;0.40;0.40;;;;;;;14.27;66.98;98963.75;6152770;23;20449;-91
2024/03/21 09:03:54;;;;;;;0.30;0.30;;;;;;;14.38;66.51;98960.41;6152735;23;20009;-89
2024/03/21 09:06:20;;;;;;;0.30;0.30;;;;;;;14.55;62.64;98960.69;6154666;23;20009;-88
2024/03/21 09:08:45;;;;;;;0.30;0.30;;;;;;;14.93;60.11;98962.22;6152991;23;20677;-89
2024/03/21 09:11:11;;;;;;;0.40;0.40;;;;;;;14.84;60.88;98955.81;6153019;23;20017;-91
2024/03/21 09:13:36;;;;;;;0.30;0.30;;;;;;;15.35;58.80;98951.19;6130196;23;20013;-90
2024/03/21 09:16:04;;;;;;;0.30;0.30;;;;;;;15.70;57.61;98951.66;6127335;23;20036;-89
2024/03/21 09:18:29;;;;;;;0.30;0.30;;;;;;;16.11;55.79;98941.38;6127314;23;20025;-89
2024/03/21 09:20:57;;;;;;;0.30;0.30;;;;;;;16.61;55.13;98931.97;6152336;23;20010;-90
2024/03/21 09:23:24;;;;;;;0.30;0.30;;;;;;;16.67;54.61;98930.25;6151861;23;20005;-89
2024/03/21 09:25:49;;;;;;;0.30;0.30;;;;;;;17.48;52.93;98932.56;6126130;23;20483;-89
2024/03/21 09:28:15;;;;;;;0.30;0.30;;;;;;;17.73;52.42;98935.38;6127217;23;20084;-89
2024/03/21 09:30:44;;;;;;;0.20;0.20;;;;;;;17.31;54.18;98943.28;6150710;23;20021;-90
2024/03/21 09:33:11;;;;;;;0.20;0.20;;;;;;;17.02;54.23;98951.19;6149850;23;20024;-88
2024/03/21 09:35:38;;;;;;;0.40;0.40;;;;;;;17.56;53.53;98955.09;6151410;23;20448;-89
2024/03/21 09:38:03;;;;;;;0.30;0.30;;;;;;;19.27;49.11;98942.78;6151113;23;20024;-89
2024/03/21 09:40:29;;;;;;;0.30;0.30;;;;;;;19.52;48.96;98951.72;6126248;23;20716;-92
2024/03/21 09:42:56;;;;;;;0.20;0.20;;;;;;;18.87;50.63;98957.22;6150461;23;20010;-90
2024/03/21 09:45:24;;;;;;;0.30;0.30;;;;;;;18.94;51.96;98956.34;6138445;23;20040;-89
2024/03/21 09:47:50;;;;;;;0.30;0.30;;;;;;;19.17;50.23;98953.63;6128792;23;20100;-88
2024/03/21 09:50:15;;;;;;;0.30;0.30;;;;;;;17.68;54.71;98959.66;6149245;23;19998;-89
2024/03/21 09:52:41;;;;;;;0.30;0.30;;;;;;;17.31;55.96;98961.25;6150307;23;20009;-88
2024/03/21 09:55:14;;;;;;;0.30;0.30;;;;;;;16.77;57.90;98968.03;6147479;23;20025;-87
2024/03/21 09:57:41;;;;;;;0.30;0.30;;;;;;;17.17;57.33;98963.88;6150069;23;20013;-87
2024/03/21 10:00:09;;;;;;;0.30;0.30;;;;;;;17.16;57.43;98968.34;6148222;23;20092;-87
2024/03/21 10:02:37;;;;;;;0.30;0.30;;;;;;;16.56;59.04;98974.13;6147499;23;20465;-87
2024/03/21 10:05:09;;;;;;;0.30;0.30;;;;;;;16.37;59.69;98971.25;6148791;23;20021;-89
2024/03/21 10:07:36;;;;;;;0.40;0.40;;;;;;;16.58;59.25;98961.59;6148025;23;20017;-88
2024/03/21 10:10:03;;;;;;;0.40;0.40;;;;;;;16.58;59.20;98965.19;6125489;23;20017;-88
2024/03/21 10:12:30;;;;;;;0.40;0.40;;;;;;;16.76;59.67;98963.53;6152315;23;20010;-89
2024/03/21 10:14:56;;;;;;;0.40;0.40;;;;;;;17.71;57.23;98970.44;6154092;23;20442;-87
2024/03/21 10:17:26;;;;;;;0.40;0.40;;;;;;;19.17;52.15;98964.44;6156029;23;20072;-87
2024/03/21 10:19:52;;;;;;;0.30;0.30;;;;;;;19.06;52.18;98960.81;6155814;23;20029;-89
2024/03/21 10:22:19;;;;;;;0.30;0.30;;;;;;;18.67;52.26;98959.91;6154157;23;20001;-89
2024/03/21 10:25:00;;;;;;;0.30;0.30;;;;;;;18.89;51.59;98960.84;6154380;23;20322;-89
2024/03/21 10:27:25;;;;;;;0.30;0.30;;;;;;;20.41;48.12;98949.50;6155613;23;20009;-86
2024/03/21 10:29:52;;;;;;;0.30;0.30;;;;;;;22.07;44.73;98949.69;6153105;23;20088;-88
2024/03/21 10:32:22;;;;;;;0.30;0.30;;;;;;;20.65;46.95;98948.44;6128678;23;20009;-89
2024/03/21 10:34:52;;;;;;;0.20;0.20;;;;;;;19.77;49.35;98961.59;6153351;23;20294;-88
2024/03/21 10:37:24;;;;;;;0.20;0.20;;;;;;;19.85;49.05;98959.75;6183027;23;20049;-90
2024/03/21 10:39:57;;;;;;;0.20;0.20;;;;;;;18.80;51.42;98968.97;6154745;23;20017;-88
2024/03/21 10:42:31;;;;;;;0.30;0.30;;;;;;;17.95;52.99;98967.88;6156856;23;20021;-86
2024/03/21 10:45:04;;;;;;;0.30;0.30;;;;;;;17.83;52.95;98958.84;6154471;23;20020;-87
2024/03/21 10:47:31;;;;;;;0.30;0.30;;;;;;;18.91;51.07;98968.94;6153641;23;20040;-88
2024/03/21 10:49:57;;;;;;;;;;;;;;;18.73;51.47;98967.16;6156513;23;20021;-87
2024/03/21 10:52:22;;;;;;;0.30;0.30;;;;;;;18.49;50.99;98964.38;6156482;23;19921;-88
2024/03/21 10:54:57;;;;;;;0.30;0.30;;;;;;;18.75;51.59;98970.78;6157894;23;20009;-89
2024/03/21 10:57:27;;;;;;;0.30;0.30;;;;;;;19.00;50.77;98974.34;6131478;23;20831;-88
2024/03/21 10:59:56;;;;;;;0.30;0.30;;;;;;;17.81;54.00;98966.91;6130568;23;20015;-87
2024/03/21 11:02:31;;;;;;;0.40;0.40;;;;;;;18.19;52.18;98963.44;6132297;23;20010;-88
2024/03/21 11:05:11;;;;;;;0.25;0.25;;;;;;;18.11;52.74;98970.63;6154044;23;20067;-88
2024/03/21 11:07:37;;;;;;;0.30;0.30;;;;;;;17.59;54.04;98959.63;6153956;23;20029;-86
2024/03/21 11:10:04;;;;;;;0.40;0.40;;;;;;;18.06;53.38;98978.72;6152933;23;20019;-89
2024/03/21 11:12:30;;;;;;;0.30;0.30;;;;;;;19.56;48.02;98965.25;6178861;23;20021;-88
2024/03/21 11:14:56;;;;;;;0.40;0.40;;;;;;;21.05;45.10;98961.69;6153876;23;20016;-86
2024/03/21 11:17:25;;;;;;;0.20;0.20;;;;;;;20.51;46.28;98967.56;6155157;23;20414;-89
2024/03/21 11:19:54;;;;;;;0.40;0.40;;;;;;;21.07;45.01;98968.88;6152992;23;20016;-89
2024/03/21 11:22:19;;;;;;;0.20;0.20;;;;;;;20.34;45.33;98974.84;6152277;23;20084;-89
2024/03/21 11:24:45;;;;;;;0.20;0.20;;;;;;;19.26;48.44;98979.75;6127503;23;20044;-90
2024/03/21 11:27:18;;;;;;;0.20;0.20;;;;;;;19.08;50.08;98968.97;6123469;23;20002;-87
2024/03/21 11:29:45;;;;;;;0.20;0.20;;;;;;;18.41;51.82;98984.22;6149525;23;20041;-87
2024/03/21 11:32:22;;;;;;;0.30;0.30;;;;;;;17.87;52.78;98988.56;6147965;23;20140;-87
2024/03/21 11:34:48;;;;;;;0.30;0.30;;;;;;;18.54;51.85;98992.31;6122033;23;20022;-89
2024/03/21 11:37:15;;;;;;;0.20;0.20;;;;;;;18.01;52.71;98993.09;6123691;23;20025;-88
2024/03/21 11:39:40;;;;;;;0.30;0.30;;;;;;;17.89;54.17;98992.16;6147960;23;20092;-90